Impacts TAF Board INFO
FOR SITUATIONAL AWARENESS. NOT TO BE USED FOR FLIGHT PLANNING PURPOSES.
IDs:

KCLE - Cleveland/Hopkins In, OH, US

Issued at 2047 UTC 17 Jan 2017
Updated at 2329 UTC 17 Jan 2017
Potential Impact None Slight Moderate High
Time2251Z 18/00Z 18/01Z 18/02Z 18/03Z 18/04Z 18/05Z 18/06Z 18/07Z 18/08Z 18/09Z 18/10Z 18/11Z 18/12Z
Type OBS PRVL PRVL PRVL PRVL PRVL PRVL PRVL PRVL PRVL PRVL PRVL PRVL PRVL
VIS 10 >6 >6 >6 >6 6 6 6 5 5 5 5 5 5
CIG 29 25 25 25 25 10 10 10 6 6 6 6 6 6
Cover OVC BKN BKN BKN BKN OVC OVC OVC OVC OVC OVC OVC OVC OVC
FltCat MVFR MVFR MVFR MVFR MVFR MVFR MVFR MVFR IFR IFR IFR IFR IFR IFR
WX -- -- -- -- -- BR BR BR -SHRA BR -SHRA BR -SHRA BR -SHRA BR -SHRA BR -SHRA BR
WDir 260 250 250 250 250 250 250 250 260 260 260 260 260 260
WSpd 14 12 12 12 12 10 10 10 10 10 10 10 10 10
WGst 21 -- -- -- -- -- -- -- -- -- -- -- -- --

Raw TAF
KCLE 172047Z 1721/1824 25014G22KT P6SM SCT015 OVC050
  FM172200 25012KT P6SM BKN025
  TEMPO 1722/1724 25012G22KT
  FM180400 25010KT 6SM BR OVC010
  FM180700 26010KT 5SM -SHRA BR OVC006
  FM181400 27008KT P6SM OVC008
  FM182000 27008KT P6SM OVC010


Raw METAR
KCLE 172251Z 26014G21KT 10SM OVC029 12/07 A2986 RMK AO2 SLP113 T01170067
KCLE 172221Z 25011KT 10SM OVC029 12/07 A2986 RMK AO2 T01220067
KCLE 172151Z 25011KT 10SM OVC033 13/07 A2985 RMK AO2 SLP109 T01280072
KCLE 172051Z 26016G21KT 10SM BKN032 OVC050 13/07 A2984 RMK AO2 SLP105 T01330072 53010

METAR Board
Radar Display
Forecast Discussion

FOR SITUATIONAL AWARENESS. NOT TO BE USED FOR FLIGHT PLANNING PURPOSES.

Page loaded:  23:29 UTC  |   03:29 PM Pacific  |   04:29 PM Mountain  |   05:29 PM Central  |   06:29 PM Eastern

 

ADVISORIES

FORECASTS

FORECASTS

OBSERVATIONS

USER TOOLS

ABOUT US